Time;durP1;ratioP1;P1;durP2;ratioP2;P2;SDS_P1;SDS_P2;PMS_P1;PMS_P2;Temp;Humidity;BMP_temperature;BMP_pressure;BME280_temperature;BME280_humidity;BME280_pressure;Samples;Min_cycle;Max_cycle;Signal;HPM_P1;HPM_P2
2021/03/14 00:02:53;;;;;;;5.37;1.37;;;;;;;7.32;74.30;99265.09;3886684;33;20071;-79
2021/03/14 00:05:21;;;;;;;7.97;1.25;;;;;;;7.24;74.23;99267.34;4345790;32;20051;-78
2021/03/14 00:07:46;;;;;;;3.92;0.98;;;;;;;7.26;73.88;99278.88;4349399;32;20031;-79
2021/03/14 00:10:12;;;;;;;8.05;1.30;;;;;;;7.22;73.80;99272.62;4347982;32;20273;-79
2021/03/14 00:12:38;;;;;;;5.97;1.15;;;;;;;7.19;74.42;99275.53;4346870;32;20023;-80
2021/03/14 00:15:05;;;;;;;3.42;1.15;;;;;;;7.15;74.89;99274.88;4351122;32;20035;-79
2021/03/14 00:17:30;;;;;;;4.95;1.37;;;;;;;7.13;75.35;99285.72;4347660;33;20043;-78
2021/03/14 00:19:56;;;;;;;5.18;1.27;;;;;;;7.11;75.82;99285.37;4347630;32;20422;-79
2021/03/14 00:22:22;;;;;;;5.90;0.95;;;;;;;7.13;75.95;99314.50;4346840;32;20307;-78
2021/03/14 00:24:47;;;;;;;6.53;1.58;;;;;;;7.17;75.75;99317.16;4345748;32;20058;-78
2021/03/14 00:27:13;;;;;;;10.77;1.50;;;;;;;7.17;75.76;99319.94;4346964;32;20067;-78
2021/03/14 00:29:39;;;;;;;4.72;1.20;;;;;;;7.10;75.69;99323.78;4332454;33;20197;-79
2021/03/14 00:32:04;;;;;;;6.57;1.02;;;;;;;7.19;75.26;99325.88;4347465;32;20097;-79
2021/03/14 00:34:31;;;;;;;2.65;0.80;;;;;;;7.17;75.23;99329.13;4350853;32;20031;-79
2021/03/14 00:36:57;;;;;;;3.85;1.27;;;;;;;7.18;74.97;99327.12;4347472;32;20097;-80
2021/03/14 00:39:23;;;;;;;5.75;1.45;;;;;;;7.31;74.31;99327.88;4348690;32;20090;-79
2021/03/14 00:41:50;;;;;;;7.10;1.98;;;;;;;7.31;74.12;99339.06;4347760;32;20043;-78
2021/03/14 00:44:16;;;;;;;5.85;1.23;;;;;;;7.25;73.60;99352.06;4351683;32;20040;-80
2021/03/14 00:46:41;;;;;;;8.60;1.15;;;;;;;7.32;73.93;99340.63;4344799;33;20050;-80
2021/03/14 00:49:07;;;;;;;3.78;0.98;;;;;;;7.26;74.04;99351.63;4346626;32;20036;-78
2021/03/14 00:51:33;;;;;;;6.80;1.35;;;;;;;7.32;73.96;99352.63;4349494;32;20070;-77
2021/03/14 00:53:59;;;;;;;5.07;1.00;;;;;;;7.39;73.71;99366.38;4350081;32;20372;-77
2021/03/14 00:56:25;;;;;;;7.75;1.50;;;;;;;7.42;73.87;99371.06;4344819;32;20063;-77
2021/03/14 00:58:50;;;;;;;8.52;1.62;;;;;;;7.62;73.36;99374.41;4348316;32;20023;-76
2021/03/14 01:01:16;;;;;;;8.38;1.17;;;;;;;7.47;73.81;99380.91;4349162;32;20507;-76
2021/03/14 01:03:42;;;;;;;5.80;1.00;;;;;;;7.40;74.53;99390.31;4345654;32;20142;-77
2021/03/14 01:06:07;;;;;;;8.48;1.15;;;;;;;7.39;74.98;99391.56;4348726;32;20039;-76
2021/03/14 01:08:33;;;;;;;5.90;1.15;;;;;;;7.35;74.71;99401.28;4350099;32;20377;-77
2021/03/14 01:10:59;;;;;;;7.22;1.10;;;;;;;7.39;74.49;99401.97;4349284;32;20070;-78
2021/03/14 01:13:25;;;;;;;6.95;0.95;;;;;;;7.31;74.69;99406.22;4347765;32;20036;-78
2021/03/14 01:15:51;;;;;;;7.55;1.45;;;;;;;7.30;75.09;99413.84;4348831;32;20086;-76
2021/03/14 01:18:17;;;;;;;6.68;1.00;;;;;;;7.34;74.78;99433.31;4346961;32;20015;-77
2021/03/14 01:20:43;;;;;;;9.52;1.37;;;;;;;7.32;73.99;99430.97;4346568;32;20117;-77
2021/03/14 01:23:08;;;;;;;11.73;1.87;;;;;;;7.37;73.94;99438.78;4347264;32;20071;-79
2021/03/14 01:25:34;;;;;;;4.72;1.27;;;;;;;7.34;74.08;99433.31;4351452;32;20190;-77
2021/03/14 01:28:00;;;;;;;7.00;1.33;;;;;;;7.29;73.33;99436.66;4348128;32;20040;-78
2021/03/14 01:30:26;;;;;;;5.20;0.93;;;;;;;7.43;72.89;99444.63;4346813;32;20467;-77
2021/03/14 01:32:51;;;;;;;8.23;1.48;;;;;;;7.42;72.69;99451.44;4347435;32;20054;-79
2021/03/14 01:35:18;;;;;;;9.20;1.50;;;;;;;7.33;73.19;99463.31;4350287;32;20039;-78
2021/03/14 01:37:45;;;;;;;7.32;1.17;;;;;;;7.45;72.19;99464.53;4347176;32;20086;-79
2021/03/14 01:40:12;;;;;;;7.57;1.12;;;;;;;7.41;72.17;99475.84;4347735;32;20161;-78
2021/03/14 01:42:38;;;;;;;11.88;1.35;;;;;;;7.43;73.02;99461.41;4347088;32;20070;-76
2021/03/14 01:45:05;;;;;;;8.25;1.12;;;;;;;7.47;72.62;99470.47;4346035;33;20928;-78
2021/03/14 01:47:36;;;;;;;7.22;1.15;;;;;;;7.41;72.56;99483.47;4335096;32;20035;-78
2021/03/14 01:50:07;;;;;;;7.28;1.08;;;;;;;7.55;72.22;99500.59;4348296;32;20031;-77
2021/03/14 01:52:33;;;;;;;7.68;1.42;;;;;;;7.47;72.00;99498.47;4333048;32;20319;-79
2021/03/14 01:55:00;;;;;;;7.22;1.17;;;;;;;7.44;72.30;99496.56;4344795;32;20032;-78
2021/03/14 01:57:27;;;;;;;9.85;1.15;;;;;;;7.47;72.07;99499.25;4344336;32;20063;-79
2021/03/14 01:59:53;;;;;;;9.35;1.20;;;;;;;7.55;71.44;99494.22;4349134;32;20450;-76
2021/03/14 02:02:20;;;;;;;11.05;1.42;;;;;;;7.53;71.15;99497.47;4347246;32;20459;-79
2021/03/14 02:04:46;;;;;;;8.57;1.10;;;;;;;7.59;71.39;99501.28;4332508;33;20114;-78
2021/03/14 02:07:13;;;;;;;7.43;1.33;;;;;;;7.58;71.37;99519.28;4346915;32;20090;-80
2021/03/14 02:09:39;;;;;;;12.88;1.10;;;;;;;7.62;71.30;99513.59;4347678;32;20035;-76
2021/03/14 02:12:09;;;;;;;16.92;1.45;;;;;;;7.59;71.54;99517.28;4348269;32;20039;-77
2021/03/14 02:14:38;;;;;;;11.25;1.23;;;;;;;7.61;71.44;99521.19;4344527;33;20684;-77
2021/03/14 02:17:07;;;;;;;12.23;1.58;;;;;;;7.60;71.21;99544.03;4343359;33;20466;-80
2021/03/14 02:19:36;;;;;;;12.60;1.55;;;;;;;7.66;71.54;99526.25;4347706;32;20062;-80
2021/03/14 02:22:03;;;;;;;12.23;1.42;;;;;;;7.60;72.37;99541.25;4346633;32;20093;-78
2021/03/14 02:24:39;;;;;;;12.18;1.50;;;;;;;7.63;72.28;99540.34;4345856;33;20075;-77
2021/03/14 02:27:06;;;;;;;13.52;1.60;;;;;;;7.68;72.45;99546.19;4344818;33;20039;-80
2021/03/14 02:29:35;;;;;;;9.00;1.50;;;;;;;7.65;72.71;99554.69;4346262;33;20053;-79
2021/03/14 02:32:03;;;;;;;7.05;0.85;;;;;;;7.66;73.15;99571.03;4345964;33;20057;-80
2021/03/14 02:34:33;;;;;;;14.27;1.30;;;;;;;7.59;73.77;99593.66;4348317;33;20036;-79
2021/03/14 02:37:02;;;;;;;6.90;1.50;;;;;;;7.63;73.63;99583.13;4344482;32;20142;-79
2021/03/14 02:39:28;;;;;;;9.15;1.30;;;;;;;7.66;73.44;99578.66;4347034;33;20020;-79
2021/03/14 02:41:57;;;;;;;10.52;1.25;;;;;;;7.70;72.78;99594.09;4349648;33;20040;-77
2021/03/14 02:44:28;;;;;;;10.10;1.35;;;;;;;7.71;71.98;99606.88;4343658;33;20075;-79
2021/03/14 02:46:54;;;;;;;7.03;1.25;;;;;;;7.80;71.67;99615.38;4346190;33;20121;-78
2021/03/14 02:49:21;;;;;;;11.52;1.52;;;;;;;7.84;71.04;99610.47;4346761;33;20181;-81
2021/03/14 02:51:48;;;;;;;15.02;1.98;;;;;;;7.96;71.12;99603.31;4346622;33;20070;-83
2021/03/14 02:54:16;;;;;;;12.32;1.92;;;;;;;7.96;71.22;99606.13;4344668;33;20129;-80
2021/03/14 02:56:44;;;;;;;8.02;1.55;;;;;;;8.07;70.75;99610.13;4344998;33;20061;-78
2021/03/14 02:59:13;;;;;;;10.27;1.80;;;;;;;8.19;70.26;99605.75;4344856;33;20087;-81
2021/03/14 03:01:38;;;;;;;8.45;1.35;;;;;;;8.11;70.38;99608.00;4345288;33;20040;-82
2021/03/14 03:04:04;;;;;;;7.47;1.92;;;;;;;8.17;70.42;99616.66;4343946;33;20093;-78
2021/03/14 03:06:32;;;;;;;14.25;2.47;;;;;;;8.15;70.40;99630.31;4346906;33;20545;-78
2021/03/14 03:08:59;;;;;;;9.82;1.73;;;;;;;8.17;70.50;99625.81;4343177;33;20028;-82
2021/03/14 03:11:25;;;;;;;13.30;1.92;;;;;;;8.09;70.95;99624.50;4345472;33;20047;-83
2021/03/14 03:13:53;;;;;;;9.75;1.58;;;;;;;8.01;71.38;99625.16;4344627;33;20036;-77
2021/03/14 03:16:20;;;;;;;15.55;1.73;;;;;;;8.00;70.28;99629.19;4347112;33;20084;-79
2021/03/14 03:18:47;;;;;;;8.80;1.73;;;;;;;7.88;70.45;99627.16;4346150;33;20352;-80
2021/03/14 03:21:13;;;;;;;9.15;1.50;;;;;;;8.00;69.97;99634.78;4348126;32;20102;-78
2021/03/14 03:23:40;;;;;;;10.18;1.80;;;;;;;7.91;69.92;99646.66;4350869;32;20035;-80
2021/03/14 03:26:06;;;;;;;8.35;1.77;;;;;;;7.97;70.09;99655.28;4348346;32;20149;-80
2021/03/14 03:28:33;;;;;;;13.40;2.08;;;;;;;7.96;71.16;99648.94;4348669;32;20398;-83
2021/03/14 03:30:59;;;;;;;11.60;2.22;;;;;;;7.98;72.03;99654.84;4349775;32;20325;-82
2021/03/14 03:33:25;;;;;;;10.95;2.08;;;;;;;7.84;72.38;99649.69;4345381;32;20051;-83
2021/03/14 03:35:51;;;;;;;8.45;2.10;;;;;;;7.78;72.63;99654.28;4350267;32;20375;-80
2021/03/14 03:38:17;;;;;;;7.68;1.60;;;;;;;7.81;72.79;99659.00;4335124;33;20115;-79
2021/03/14 03:40:43;;;;;;;10.77;2.33;;;;;;;7.76;73.07;99651.13;4351184;32;20435;-79
2021/03/14 03:45:48;;;;;;;12.25;2.10;;;;;;;8.36;71.40;99677.31;3976945;32;15021291;-80
2021/03/14 03:48:20;;;;;;;11.52;1.80;;;;;;;8.36;71.40;99677.31;4429157;32;20103;-81
2021/03/14 03:50:48;;;;;;;15.82;2.12;;;;;;;7.96;72.16;99687.34;4430237;32;20062;-82
2021/03/14 03:53:16;;;;;;;7.87;1.80;;;;;;;7.81;72.35;99686.19;4431407;32;20089;-79
2021/03/14 03:55:43;;;;;;;11.55;1.87;;;;;;;7.89;71.85;99693.16;4430385;32;20103;-81
2021/03/14 03:58:11;;;;;;;10.05;2.40;;;;;;;7.82;71.82;99684.97;4429928;32;20063;-81
2021/03/14 04:00:38;;;;;;;13.82;2.83;;;;;;;7.88;72.03;99691.56;4428380;32;20061;-80
2021/03/14 04:03:05;;;;;;;15.52;1.67;;;;;;;7.82;72.05;99691.34;4414921;32;20060;-80
2021/03/14 04:05:32;;;;;;;16.12;2.17;;;;;;;7.86;71.60;99711.63;4413543;32;20450;-83
2021/03/14 04:07:58;;;;;;;11.30;1.98;;;;;;;7.79;71.58;99703.44;4415714;32;20057;-83
2021/03/14 04:10:26;;;;;;;13.73;2.17;;;;;;;7.89;70.91;99715.56;4412672;32;20096;-83
2021/03/14 04:12:54;;;;;;;12.37;2.20;;;;;;;7.92;70.75;99712.66;4413086;32;20085;-81
2021/03/14 04:15:24;;;;;;;8.70;1.48;;;;;;;7.90;70.16;99719.94;4412311;32;20137;-80
2021/03/14 04:17:52;;;;;;;6.90;1.45;;;;;;;7.97;69.58;99708.53;4413543;32;20071;-81
2021/03/14 04:20:21;;;;;;;12.07;1.60;;;;;;;8.00;69.50;99714.03;4413174;32;20061;-81
2021/03/14 04:22:52;;;;;;;12.90;1.65;;;;;;;7.83;69.58;99720.16;4415426;32;20460;-80
2021/03/14 04:25:19;;;;;;;12.30;1.65;;;;;;;7.91;69.94;99733.50;4412664;32;20163;-80
2021/03/14 04:27:48;;;;;;;8.50;1.42;;;;;;;7.74;70.99;99753.62;4413385;32;20069;-79
2021/03/14 04:30:15;;;;;;;11.88;1.58;;;;;;;7.83;70.83;99753.78;4413983;32;20074;-80
2021/03/14 04:32:41;;;;;;;8.40;1.48;;;;;;;7.85;70.74;99768.88;4413259;32;20038;-78
2021/03/14 04:35:09;;;;;;;13.50;1.67;;;;;;;7.84;70.78;99774.94;4414526;32;20403;-79
2021/03/14 04:37:38;;;;;;;14.95;2.28;;;;;;;7.85;71.00;99770.91;4412500;32;20064;-78
2021/03/14 04:40:08;;;;;;;7.65;1.48;;;;;;;7.80;70.89;99793.84;4413675;32;20052;-77
2021/03/14 04:42:35;;;;;;;8.88;1.12;;;;;;;7.84;70.04;99798.13;4418740;32;20472;-79
2021/03/14 04:45:02;;;;;;;9.85;1.30;;;;;;;7.70;71.09;99800.56;4413240;32;20065;-81
2021/03/14 04:47:28;;;;;;;9.07;1.48;;;;;;;7.57;71.09;99799.69;4414090;32;20084;-82
2021/03/14 04:49:53;;;;;;;6.45;1.37;;;;;;;7.68;70.75;99803.00;4413898;32;20030;-80
2021/03/14 04:52:20;;;;;;;9.55;1.27;;;;;;;7.69;70.04;99819.34;4413275;32;20026;-78
2021/03/14 04:54:50;;;;;;;8.38;1.12;;;;;;;7.91;69.34;99819.53;4411578;32;20074;-82
2021/03/14 04:57:18;;;;;;;8.43;1.17;;;;;;;7.74;69.72;99832.81;4403102;32;20083;-79
2021/03/14 04:59:45;;;;;;;5.25;1.55;;;;;;;7.76;69.77;99824.75;4402628;32;20030;-79
2021/03/14 05:02:13;;;;;;;8.73;1.35;;;;;;;7.63;69.79;99807.12;4402590;32;20079;-79
2021/03/14 05:04:42;;;;;;;9.18;1.62;;;;;;;7.65;69.97;99829.06;4401854;32;20030;-83
2021/03/14 05:07:10;;;;;;;13.55;1.27;;;;;;;7.60;70.28;99835.19;4402302;32;20070;-80
2021/03/14 05:09:37;;;;;;;9.18;1.10;;;;;;;7.40;70.78;99834.53;4402186;32;20083;-81
2021/03/14 05:12:04;;;;;;;6.25;1.27;;;;;;;7.51;70.39;99843.44;4400247;32;20034;-79
2021/03/14 05:14:30;;;;;;;7.12;1.10;;;;;;;7.24;71.10;99837.34;4400044;32;20090;-82
2021/03/14 05:16:56;;;;;;;9.85;1.17;;;;;;;7.30;71.19;99855.19;4403128;32;20034;-81
2021/03/14 05:19:23;;;;;;;7.32;1.20;;;;;;;7.32;70.62;99849.94;4401419;32;20030;-79
2021/03/14 05:21:49;;;;;;;5.90;1.00;;;;;;;7.27;70.89;99875.66;4402740;32;20027;-79
2021/03/14 05:24:15;;;;;;;9.93;1.58;;;;;;;7.33;70.37;99873.91;4400115;32;20090;-82
2021/03/14 05:26:44;;;;;;;8.63;0.90;;;;;;;7.33;70.37;99871.87;4399463;32;20030;-82
2021/03/14 05:29:11;;;;;;;8.07;1.00;;;;;;;7.36;70.14;99870.22;4401276;32;20112;-80
2021/03/14 05:31:38;;;;;;;5.90;1.10;;;;;;;7.37;69.99;99875.38;4403581;32;20569;-83
2021/03/14 05:34:07;;;;;;;8.82;0.90;;;;;;;7.25;70.43;99883.69;4400596;32;20465;-80
2021/03/14 05:36:33;;;;;;;10.07;1.55;;;;;;;7.34;70.27;99897.88;4402529;32;20092;-80
2021/03/14 05:39:01;;;;;;;6.55;1.60;;;;;;;7.23;70.54;99892.53;4401832;32;20919;-79
2021/03/14 05:41:27;;;;;;;10.25;1.30;;;;;;;7.15;70.90;99901.53;4398044;32;20027;-80
2021/03/14 05:43:53;;;;;;;10.15;1.10;;;;;;;7.15;71.37;99902.28;4400983;32;20107;-82
2021/03/14 05:46:20;;;;;;;6.37;0.75;;;;;;;7.27;71.07;99915.59;4400472;32;20084;-79
2021/03/14 05:48:46;;;;;;;8.18;1.02;;;;;;;7.28;70.87;99908.00;4400935;32;20412;-82
2021/03/14 05:51:29;;;;;;;10.05;1.42;;;;;;;7.24;71.21;99913.69;4401382;32;20396;-80
2021/03/14 05:53:58;;;;;;;11.02;1.30;;;;;;;7.29;70.92;99906.78;4402470;32;20038;-81
2021/03/14 05:56:24;;;;;;;8.95;1.27;;;;;;;7.28;70.89;99906.00;4399010;32;20044;-81
2021/03/14 05:58:51;;;;;;;7.35;1.17;;;;;;;7.28;70.84;99908.81;4412616;32;20875;-81
2021/03/14 06:01:22;;;;;;;7.07;1.25;;;;;;;7.24;71.01;99926.91;4400477;32;20030;-80
2021/03/14 06:03:47;;;;;;;14.60;1.45;;;;;;;7.29;70.49;99917.97;4400052;32;20027;-82
2021/03/14 06:06:14;;;;;;;13.02;1.10;;;;;;;7.27;70.69;99928.81;4400088;32;20029;-79
2021/03/14 06:08:41;;;;;;;8.82;1.87;;;;;;;7.27;70.50;99949.19;4398854;32;20080;-79
2021/03/14 06:11:09;;;;;;;10.95;1.30;;;;;;;7.27;70.68;99954.78;4401099;32;20022;-79
2021/03/14 06:13:35;;;;;;;11.95;1.33;;;;;;;7.36;70.54;99954.97;4401159;32;20065;-78
2021/03/14 06:16:01;;;;;;;7.45;1.05;;;;;;;7.26;70.73;99969.22;4400306;32;20076;-77
2021/03/14 06:18:27;;;;;;;9.88;0.93;;;;;;;7.26;70.71;99960.81;4399921;32;20045;-78
2021/03/14 06:20:54;;;;;;;7.28;0.85;;;;;;;7.24;70.54;99969.63;4411134;32;20027;-80
2021/03/14 06:23:22;;;;;;;7.05;0.80;;;;;;;7.19;70.56;99958.97;4400462;32;20031;-81
2021/03/14 06:25:50;;;;;;;12.93;0.90;;;;;;;7.32;70.28;99967.47;4401227;32;20080;-79
2021/03/14 06:28:29;;;;;;;6.10;1.23;;;;;;;7.23;70.52;99976.47;4398066;32;20124;-80
2021/03/14 06:30:55;;;;;;;11.23;0.98;;;;;;;7.14;70.52;99979.06;4398200;32;20072;-80
2021/03/14 06:33:21;;;;;;;12.73;0.88;;;;;;;7.11;70.35;99979.94;4400984;32;20023;-77
2021/03/14 06:35:51;;;;;;;3.95;0.80;;;;;;;7.02;70.59;99976.94;4400503;32;20077;-78
2021/03/14 06:38:20;;;;;;;4.53;0.70;;;;;;;7.03;69.96;99984.09;4398323;32;20098;-76
2021/03/14 06:40:53;;;;;;;6.15;0.80;;;;;;;7.05;70.24;99983.66;4397450;32;20049;-81
2021/03/14 06:43:18;;;;;;;5.25;0.60;;;;;;;7.07;69.98;99987.63;4398129;32;20120;-77
2021/03/14 06:45:45;;;;;;;7.00;0.70;;;;;;;7.07;70.28;99984.84;4400849;32;20117;-77
2021/03/14 06:48:10;;;;;;;5.15;0.60;;;;;;;7.18;69.81;99984.59;4400466;32;20038;-77
2021/03/14 06:50:40;;;;;;;7.95;1.00;;;;;;;7.02;69.99;99987.31;4400293;32;20430;-80
2021/03/14 06:53:17;;;;;;;10.23;0.90;;;;;;;7.11;69.49;99998.72;4400334;32;20035;-81
2021/03/14 06:55:44;;;;;;;6.45;0.55;;;;;;;7.20;68.81;100001.72;4402366;32;20034;-80
2021/03/14 07:03:44;;;;;;;4.55;0.50;;;;;;;7.90;67.40;100020.47;3982296;32;15022377;-80
2021/03/14 07:06:16;;;;;;;4.37;1.08;;;;;;;7.90;67.40;100020.47;4437162;32;20071;-80
2021/03/14 07:08:43;;;;;;;10.18;1.70;;;;;;;7.45;68.97;100029.94;4432069;32;20416;-82
2021/03/14 07:11:10;;;;;;;6.97;1.05;;;;;;;7.49;68.98;100039.84;4438835;32;20073;-79
2021/03/14 07:13:38;;;;;;;9.95;1.37;;;;;;;7.56;69.46;100028.50;4438990;32;20059;-81
2021/03/14 07:16:04;;;;;;;7.47;1.20;;;;;;;7.72;69.59;100036.91;4434097;32;20037;-79
2021/03/14 07:18:34;;;;;;;13.98;1.00;;;;;;;7.89;69.12;100032.09;4431656;32;20030;-81
2021/03/14 07:21:00;;;;;;;11.82;1.55;;;;;;;7.86;69.76;100014.13;4435938;32;20552;-82
2021/03/14 07:23:34;;;;;;;12.48;1.10;;;;;;;7.88;69.72;100036.91;4430141;32;20041;-82
2021/03/14 07:26:00;;;;;;;8.13;1.33;;;;;;;8.00;69.61;100027.00;4433972;32;20057;-81
2021/03/14 07:28:27;;;;;;;15.25;1.60;;;;;;;8.10;69.88;100028.75;4435271;32;20054;-81
2021/03/14 07:30:53;;;;;;;17.92;1.95;;;;;;;8.16;69.95;100025.00;4432544;32;20062;-81
2021/03/14 07:33:20;;;;;;;15.27;1.73;;;;;;;8.34;69.48;100021.75;4433133;32;20069;-80
2021/03/14 07:35:46;;;;;;;12.13;2.10;;;;;;;8.42;69.34;100022.34;4431408;32;20077;-82
2021/03/14 07:38:13;;;;;;;19.27;3.42;;;;;;;8.49;69.19;100020.16;4438627;32;20068;-81
2021/03/14 07:40:39;;;;;;;12.50;1.98;;;;;;;8.51;69.55;100026.09;4432409;32;20140;-80
2021/03/14 07:43:04;;;;;;;17.65;2.12;;;;;;;8.59;69.00;100027.47;4432668;32;20099;-82
2021/03/14 07:45:32;;;;;;;18.42;2.15;;;;;;;8.75;68.50;100029.47;4437103;32;20164;-82
2021/03/14 07:47:59;;;;;;;10.38;1.50;;;;;;;8.67;68.37;100020.44;4434951;32;20026;-81
2021/03/14 07:50:30;;;;;;;16.33;2.22;;;;;;;8.83;68.34;100033.63;4436155;32;20080;-83
2021/03/14 07:53:03;;;;;;;21.00;2.58;;;;;;;8.83;68.17;100039.22;4436525;32;20070;-81
2021/03/14 07:55:29;;;;;;;19.98;1.87;;;;;;;8.75;68.67;100044.28;4433845;32;20466;-82
2021/03/14 07:57:55;;;;;;;17.62;2.28;;;;;;;8.68;69.10;100064.09;4433074;32;20060;-85
2021/03/14 08:03:07;;;;;;;14.40;1.90;;;;;;;8.84;69.00;100088.53;3986297;32;15029572;-83
